createdAt,value
2023-03-08T00:01:41.808Z,3.30
2023-03-08T00:06:33.940Z,3.40
2023-03-08T00:11:26.272Z,3.40
2023-03-08T00:16:18.692Z,3.40
2023-03-08T00:21:16.526Z,3.50
2023-03-08T00:26:09.336Z,3.50
2023-03-08T00:31:10.694Z,3.50
2023-03-08T00:36:06.864Z,3.50
2023-03-08T00:40:59.466Z,3.50
2023-03-08T00:45:53.113Z,3.50
2023-03-08T00:50:47.428Z,3.40
2023-03-08T00:55:39.573Z,3.30
2023-03-08T01:00:31.862Z,3.20
2023-03-08T01:05:24.727Z,3.20
2023-03-08T01:10:16.915Z,3.20
2023-03-08T01:15:09.351Z,3.20
2023-03-08T01:20:01.354Z,3.10
2023-03-08T01:24:53.371Z,3.20
2023-03-08T01:29:45.457Z,3.30
2023-03-08T01:34:38.321Z,3.30
2023-03-08T01:39:30.490Z,3.20
2023-03-08T01:44:25.300Z,3.10
2023-03-08T01:49:31.884Z,3.00
2023-03-08T01:54:33.089Z,3.00
2023-03-08T01:59:25.485Z,3.00
2023-03-08T02:04:17.496Z,3.00
2023-03-08T02:15:11.236Z,2.90
2023-03-08T02:20:22.811Z,2.80
2023-03-08T02:25:16.811Z,2.90
2023-03-08T02:30:11.293Z,2.90
2023-03-08T02:35:05.224Z,2.90
2023-03-08T02:39:58.362Z,2.90
2023-03-08T02:44:50.432Z,2.90
2023-03-08T02:49:42.398Z,2.80
2023-03-08T02:54:35.289Z,2.90
2023-03-08T02:59:27.397Z,2.90
2023-03-08T03:04:20.892Z,2.90
2023-03-08T03:09:14.014Z,2.90
2023-03-08T03:14:06.337Z,2.90
2023-03-08T03:19:03.548Z,3.00
2023-03-08T03:23:55.899Z,3.00
2023-03-08T03:28:57.596Z,3.00
2023-03-08T03:33:53.501Z,3.00
2023-03-08T03:38:49.321Z,3.00
2023-03-08T03:43:41.718Z,2.90
2023-03-08T03:48:36.712Z,2.90
2023-03-08T03:53:31.564Z,2.90
2023-03-08T03:58:23.802Z,3.00
2023-03-08T04:03:16.378Z,3.00
2023-03-08T04:08:09.098Z,2.90
2023-03-08T04:13:04.968Z,2.90
2023-03-08T04:17:57.616Z,3.00
2023-03-08T04:22:51.765Z,3.00
2023-03-08T04:27:50.980Z,3.00
2023-03-08T04:32:45.184Z,3.00
2023-03-08T04:37:39.184Z,3.00
2023-03-08T04:42:36.840Z,3.00
2023-03-08T04:47:29.363Z,3.00
2023-03-08T04:52:21.595Z,2.90
2023-03-08T04:57:14.934Z,3.00
2023-03-08T05:02:07.671Z,3.00
2023-03-08T05:07:01.766Z,3.10
2023-03-08T05:11:59.350Z,3.00
2023-03-08T05:17:01.476Z,3.10
2023-03-08T05:21:55.311Z,3.10
2023-03-08T05:26:48.472Z,3.20
2023-03-08T05:31:45.565Z,3.20
2023-03-08T05:36:39.996Z,3.20
2023-03-08T05:41:33.344Z,3.20
2023-03-08T05:46:26.398Z,3.20
2023-03-08T05:51:19.370Z,3.20
2023-03-08T05:56:18.344Z,3.20
2023-03-08T06:01:28.550Z,3.30
2023-03-08T06:06:28.620Z,3.30
2023-03-08T06:11:25.062Z,3.30
2023-03-08T06:16:19.757Z,3.40
2023-03-08T06:21:15.993Z,3.40
2023-03-08T06:26:09.710Z,3.50
2023-03-08T06:31:04.213Z,3.50
2023-03-08T06:36:01.840Z,3.70
2023-03-08T06:40:54.556Z,3.80
2023-03-08T06:45:46.975Z,3.80
2023-03-08T06:50:39.597Z,4.10
2023-03-08T06:55:32.129Z,4.30
2023-03-08T07:00:25.550Z,4.60
2023-03-08T07:05:17.713Z,4.90
2023-03-08T07:10:11.443Z,5.00
2023-03-08T07:15:04.187Z,5.60
2023-03-08T07:19:57.490Z,5.80
2023-03-08T07:24:49.854Z,5.70
2023-03-08T07:29:42.099Z,5.70
2023-03-08T07:34:34.427Z,5.90
2023-03-08T07:39:26.551Z,6.10
2023-03-08T07:44:18.586Z,6.20
2023-03-08T07:49:11.795Z,6.30
2023-03-08T07:54:04.190Z,6.20
2023-03-08T07:58:57.572Z,6.20
2023-03-08T08:03:50.358Z,6.20
2023-03-08T08:08:42.506Z,6.30
2023-03-08T08:13:34.539Z,6.80
2023-03-08T08:18:27.031Z,7.10
2023-03-08T08:23:19.193Z,7.10
2023-03-08T08:28:11.257Z,6.70
2023-03-08T08:33:03.963Z,6.60
2023-03-08T08:37:55.978Z,6.70
2023-03-08T08:42:48.017Z,6.70
2023-03-08T08:47:40.067Z,6.40
2023-03-08T08:52:32.116Z,6.60
2023-03-08T08:57:24.242Z,6.70
2023-03-08T09:02:16.321Z,6.90
2023-03-08T09:07:08.406Z,7.00
2023-03-08T09:12:00.513Z,6.60
2023-03-08T09:16:54.044Z,6.50
2023-03-08T09:21:46.301Z,6.40
2023-03-08T09:26:38.432Z,6.50
2023-03-08T09:31:31.496Z,6.40
2023-03-08T09:36:24.868Z,6.40
2023-03-08T09:41:21.819Z,6.30
2023-03-08T09:46:27.314Z,6.20
2023-03-08T09:51:21.113Z,6.30
2023-03-08T09:56:24.897Z,6.20
2023-03-08T10:01:25.433Z,6.20
2023-03-08T10:06:48.230Z,6.10
2023-03-08T10:12:00.258Z,6.00
2023-03-08T10:16:59.667Z,6.00
2023-03-08T10:21:53.473Z,6.20
2023-03-08T10:26:45.676Z,6.30
2023-03-08T10:31:37.752Z,6.10
2023-03-08T10:36:30.051Z,6.20
2023-03-08T10:41:22.272Z,6.30
2023-03-08T10:46:25.704Z,6.40
2023-03-08T10:51:24.090Z,6.30
2023-03-08T10:56:38.423Z,6.20
2023-03-08T11:01:47.245Z,6.20
2023-03-08T11:06:39.683Z,6.00
2023-03-08T11:11:42.949Z,6.10
2023-03-08T11:16:59.859Z,6.20
2023-03-08T11:22:22.506Z,6.20
2023-03-08T11:27:45.421Z,6.30
2023-03-08T11:33:01.857Z,6.20
2023-03-08T11:37:58.512Z,6.30
2023-03-08T11:43:05.625Z,6.70
2023-03-08T11:48:17.438Z,7.20
2023-03-08T11:53:22.215Z,7.20
2023-03-08T11:58:40.478Z,7.30
2023-03-08T12:03:38.432Z,7.50
2023-03-08T12:08:44.055Z,7.40
2023-03-08T12:13:43.868Z,7.50
2023-03-08T12:18:36.360Z,7.60
2023-03-08T12:23:48.581Z,7.60
2023-03-08T12:28:47.125Z,7.60
2023-03-08T12:33:39.572Z,7.50
2023-03-08T12:38:37.156Z,7.30
2023-03-08T12:43:35.510Z,7.20
2023-03-08T12:48:35.780Z,7.10
2023-03-08T12:53:52.623Z,7.00
2023-03-08T12:59:03.127Z,7.00
2023-03-08T13:03:55.716Z,6.80
2023-03-08T13:08:54.289Z,6.70
2023-03-08T13:14:24.006Z,6.70
2023-03-08T13:19:16.061Z,6.70
2023-03-08T13:24:09.258Z,6.70
2023-03-08T13:29:02.620Z,6.80
2023-03-08T13:33:56.908Z,6.60
2023-03-08T13:39:17.758Z,6.70
2023-03-08T13:44:17.452Z,6.80
2023-03-08T13:49:27.430Z,6.70
2023-03-08T13:54:29.848Z,6.60
2023-03-08T13:59:22.062Z,6.60
2023-03-08T14:04:23.124Z,6.80
2023-03-08T14:09:15.446Z,7.00
2023-03-08T14:14:15.998Z,7.20
2023-03-08T14:19:28.317Z,7.30
2023-03-08T14:24:32.744Z,7.20
2023-03-08T14:29:35.843Z,6.90
2023-03-08T14:34:34.005Z,6.70
2023-03-08T14:39:28.344Z,6.40
2023-03-08T14:44:24.993Z,6.20
2023-03-08T14:49:22.885Z,6.40
2023-03-08T14:54:36.287Z,6.30
2023-03-08T14:59:28.438Z,6.20
2023-03-08T15:04:23.309Z,6.10
2023-03-08T15:09:17.866Z,6.00
2023-03-08T15:14:13.647Z,5.90
2023-03-08T15:19:05.857Z,6.00
2023-03-08T15:23:58.465Z,5.90
2023-03-08T15:28:50.591Z,5.80
2023-03-08T15:33:42.640Z,5.90
2023-03-08T15:38:34.863Z,5.90
2023-03-08T15:43:26.868Z,5.70
2023-03-08T15:48:19.893Z,5.50
2023-03-08T15:53:13.387Z,5.50
2023-03-08T15:58:10.741Z,5.40
2023-03-08T16:03:04.355Z,5.40
2023-03-08T16:07:59.464Z,5.30
2023-03-08T16:12:51.649Z,5.40
2023-03-08T16:17:44.284Z,5.40
2023-03-08T16:22:36.482Z,5.30
2023-03-08T16:27:31.273Z,5.40
2023-03-08T16:32:23.456Z,5.30
2023-03-08T16:37:15.460Z,5.20
2023-03-08T16:42:14.126Z,5.20
2023-03-08T16:47:07.229Z,5.20
2023-03-08T16:51:59.309Z,5.20
2023-03-08T16:56:51.322Z,5.20
2023-03-08T17:01:44.076Z,5.30
2023-03-08T17:06:36.057Z,5.20
2023-03-08T17:11:31.380Z,5.20
2023-03-08T17:16:26.161Z,5.20
2023-03-08T17:21:19.945Z,5.20
2023-03-08T17:26:13.425Z,5.10
2023-03-08T17:31:10.058Z,5.00
2023-03-08T17:36:02.260Z,5.00
2023-03-08T17:40:54.499Z,5.10
2023-03-08T17:46:00.639Z,5.00
2023-03-08T17:50:52.708Z,5.10
2023-03-08T17:55:45.020Z,5.10
2023-03-08T18:00:37.640Z,5.10
2023-03-08T18:05:29.766Z,5.00
2023-03-08T18:10:22.017Z,5.00
2023-03-08T18:15:14.515Z,5.10
2023-03-08T18:20:07.949Z,5.00
2023-03-08T18:24:59.934Z,5.10
2023-03-08T18:29:51.933Z,5.10
2023-03-08T18:34:44.065Z,5.10
2023-03-08T18:39:36.066Z,5.10
2023-03-08T18:44:28.516Z,5.00
2023-03-08T18:49:20.894Z,5.10
2023-03-08T18:54:16.021Z,5.10
2023-03-08T18:59:11.092Z,5.10
2023-03-08T19:04:06.180Z,5.10
2023-03-08T19:08:58.235Z,5.10
2023-03-08T19:13:50.659Z,5.10
2023-03-08T19:18:42.794Z,5.10
2023-03-08T19:23:34.855Z,5.10
2023-03-08T19:28:27.340Z,5.00
2023-03-08T19:33:30.341Z,5.00
2023-03-08T19:38:23.783Z,5.00
2023-03-08T19:43:15.770Z,5.10
2023-03-08T19:48:07.821Z,5.10
2023-03-08T19:53:03.199Z,5.10
2023-03-08T19:57:55.429Z,5.10
2023-03-08T20:02:47.881Z,5.10
2023-03-08T20:07:40.268Z,5.00
2023-03-08T20:12:33.090Z,5.10
2023-03-08T20:17:27.945Z,5.00
2023-03-08T20:22:20.453Z,5.00
2023-03-08T20:27:13.322Z,5.10
2023-03-08T20:32:05.958Z,5.10
2023-03-08T20:36:58.007Z,5.10
2023-03-08T20:41:50.144Z,5.10
2023-03-08T20:46:42.160Z,5.10
2023-03-08T20:51:34.223Z,5.20
2023-03-08T20:56:26.669Z,5.10
2023-03-08T21:01:31.536Z,5.10
2023-03-08T21:06:27.576Z,5.10
2023-03-08T21:11:20.790Z,5.10
2023-03-08T21:16:15.756Z,5.10
2023-03-08T21:21:07.855Z,5.00
2023-03-08T21:26:01.104Z,5.00
2023-03-08T21:30:53.170Z,5.00
2023-03-08T21:35:45.291Z,4.90
2023-03-08T21:40:39.034Z,5.00
2023-03-08T21:45:31.340Z,5.00
2023-03-08T21:50:23.473Z,5.10
2023-03-08T21:55:19.475Z,5.00
2023-03-08T22:00:12.897Z,5.00
2023-03-08T22:05:05.190Z,5.00
2023-03-08T22:09:57.224Z,5.00
2023-03-08T22:14:49.327Z,5.00
2023-03-08T22:19:41.289Z,4.80
2023-03-08T22:24:33.334Z,4.80
2023-03-08T22:29:25.366Z,4.90
2023-03-08T22:34:17.417Z,4.90
2023-03-08T22:39:12.787Z,4.90
2023-03-08T22:44:06.665Z,4.90
2023-03-08T22:48:59.347Z,4.90
2023-03-08T22:53:51.675Z,4.90
2023-03-08T22:58:43.899Z,4.90
2023-03-08T23:03:35.920Z,4.90
2023-03-08T23:08:29.037Z,4.90
2023-03-08T23:13:33.117Z,5.00
2023-03-08T23:18:26.123Z,5.00
2023-03-08T23:23:18.254Z,5.00
2023-03-08T23:28:11.010Z,5.10
2023-03-08T23:33:03.042Z,5.10
2023-03-08T23:37:55.033Z,5.10
2023-03-08T23:42:47.015Z,5.10
2023-03-08T23:47:39.058Z,5.10
2023-03-08T23:52:31.080Z,5.10
2023-03-08T23:57:23.106Z,5.20
